Aérodrome :











RETROUVEZ-NOUS SUR...

 
LOGIN :

S'inscrire | Disclaimer

   EN    FR    IT 

 









Légende :    VFR   VFR Marginal   IFR   IFR Intensif   IFR Très Intensif
Visi : 
Plafond : 
>= 8 km
>= 3000ft
5 à 8 km
1000 à 3000 ft
1500m à 5 km
500 à 1000 ft
800 à 1500m
200 à 500 ft
< 800m
< 200 ft
Symboles :   Orages  Brouillard  Fortes neiges  Fortes précipitations  Vent > 20 kt






- Altitude de l'aérodrome : 2205 ft


KVGT - North Las Vegas

DERNIER METAR :
  • 190253Z 07004KT 10SM CLR 13/M11 A3002 RMK AO2 SLP180 T01331106 53001

METARs EXPIRÉS :
  • 190153Z 09003KT 10SM CLR 15/M11 A3001 RMK AO2 SLP175 T01501111
  • 190053Z VRB03KT 10SM CLR 16/M11 A3001 RMK AO2 SLP174 T01561111

TAF KVGT
Valide du 19 à 00h jusqu'au 20 à 00h UTC


182320Z 1900/1924 07006KT P6SM SCT150
FM190300 32007KT P6SM SCT150
FM191900 04007KT P6SM FEW150



MET'MAP, la Météo Aéronautique d'un coup d'oeil ! - Copyright ORBIFLY Décembre 2007 - Disclaimer

ORBIFLY MET'MAP TEAM :

Programmation & Développement : Alexandra Zaïnal
Sur une idée originale de : Baudouin d'Aumeries
Assistance à la programmation : Marc-Olivier Méhu
Soutien technique & logistique : Manuel Goepfert

Contact : metmap@orbifly.com




SOURCES & CREDITS :

   NOAA       Earth
Advisory